Time;durP1;ratioP1;P1;durP2;ratioP2;P2;SDS_P1;SDS_P2;PMS_P1;PMS_P2;Temp;Humidity;BMP_temperature;BMP_pressure;BME280_temperature;BME280_humidity;BME280_pressure;Samples;Min_cycle;Max_cycle;Signal;HPM_P1;HPM_P2
2022/01/27 00:00:49;;;;;;;;;44.50;40.75;;;;;-147.17;100.00;50475.91;5012221;28;51159;-61
2022/01/27 00:03:26;;;;;;;;;55.75;41.25;;;;;-147.17;100.00;50501.50;5032100;28;51887;-61
2022/01/27 00:05:59;;;;;;;;;45.50;40.00;;;;;-147.17;100.00;50497.56;5024720;28;51134;-60
2022/01/27 00:08:40;;;;;;;;;41.75;38.25;;;;;-147.17;100.00;50507.41;5031709;28;51123;-60
2022/01/27 00:11:14;;;;;;;;;40.25;38.00;;;;;-147.17;100.00;50483.78;5029626;28;52235;-60
2022/01/27 00:13:45;;;;;;;;;44.50;38.00;;;;;-147.17;100.00;50497.56;5022039;28;52889;-61
2022/01/27 00:16:17;;;;;;;;;47.00;39.75;;;;;-147.17;100.00;50497.56;5027201;28;51268;-60
2022/01/27 00:18:45;;;;;;;;;40.25;35.25;;;;;-147.17;100.00;50515.28;5024848;28;51261;-60
2022/01/27 00:21:11;;;;;;;;;43.50;39.00;;;;;-147.17;100.00;50525.13;5020252;28;51129;-60
2022/01/27 00:23:37;;;;;;;;;36.00;36.00;;;;;-147.17;100.00;50519.22;5022118;28;52075;-60
2022/01/27 00:26:04;;;;;;;;;47.25;38.75;;;;;-147.17;100.00;50485.75;5025989;28;51238;-60
2022/01/27 00:28:29;;;;;;;;;48.25;38.00;;;;;-147.17;100.00;50517.25;5022098;28;51433;-60
2022/01/27 00:30:55;;;;;;;;;45.50;39.75;;;;;-147.17;100.00;50517.25;5023606;28;51328;-61
2022/01/27 00:33:20;;;;;;;;;44.25;38.50;;;;;-147.17;100.00;50533.00;5033432;28;51755;-61
2022/01/27 00:35:46;;;;;;;;;40.25;37.50;;;;;-147.17;100.00;50495.59;5026960;28;50980;-61
2022/01/27 00:38:12;;;;;;;;;35.75;34.25;;;;;-147.17;100.00;50517.25;5016078;28;52396;-62
2022/01/27 00:40:37;;;;;;;;;47.00;39.75;;;;;-147.17;100.00;50552.69;5024571;28;51264;-62
2022/01/27 00:43:03;;;;;;;;;47.50;40.00;;;;;-147.17;100.00;50497.56;5017885;28;51899;-63
2022/01/27 00:45:30;;;;;;;;;47.50;39.50;;;;;-147.17;100.00;50485.75;5023902;28;51177;-62
2022/01/27 00:47:55;;;;;;;;;46.25;39.50;;;;;-147.17;100.00;50531.03;5013778;28;51091;-62
2022/01/27 00:50:21;;;;;;;;;44.25;38.00;;;;;-147.17;100.00;50499.53;5020261;28;51172;-62
2022/01/27 00:52:53;;;;;;;;;35.75;32.75;;;;;-147.17;100.00;50544.81;5013363;28;52308;-62
2022/01/27 00:55:21;;;;;;;;;42.25;36.25;;;;;-147.17;100.00;50509.38;5021731;28;51150;-63
2022/01/27 00:58:46;;;;;;;;;40.25;36.50;;;;;-147.17;100.00;50529.06;5014407;28;50991;-62
2022/01/27 01:00:38;;;;;;;;;47.50;40.00;;;;;-147.17;100.00;50548.75;5014156;28;51400;-62
2022/01/27 01:03:10;;;;;;;;;51.25;40.25;;;;;-147.17;100.00;50497.56;5022869;28;51869;-61
2022/01/27 01:16:23;;;;;;;;;48.75;41.00;;;;;-147.17;100.00;50505.44;5027921;28;51114;-61
2022/01/27 01:19:42;;;;;;;;;48.75;41.25;;;;;-147.17;100.00;50509.38;5021425;28;52681;-61
2022/01/27 01:29:25;;;;;;;;;48.00;41.00;;;;;-147.17;100.00;50513.31;5007287;28;51267;-63
2022/01/27 01:32:57;;;;;;;;;45.25;40.00;;;;;-147.17;100.00;50509.38;5032336;28;51383;-62
2022/01/27 01:35:27;;;;;;;;;51.75;40.25;;;;;-147.17;100.00;50485.75;5027218;28;51261;-62
2022/01/27 01:37:54;;;;;;;;;52.75;43.50;;;;;-147.17;100.00;50497.56;5015586;28;51240;-62
2022/01/27 01:40:20;;;;;;;;;55.75;42.00;;;;;-147.17;100.00;50487.72;5024639;28;51149;-62
2022/01/27 01:42:46;;;;;;;;;53.50;41.75;;;;;-147.17;100.00;50477.88;5019344;28;51176;-62
2022/01/27 01:45:14;;;;;;;;;48.50;40.25;;;;;-147.17;100.00;50497.56;5028249;28;53057;-62
2022/01/27 01:47:40;;;;;;;;;56.00;44.25;;;;;-147.17;100.00;50511.34;5026871;28;51154;-61
2022/01/27 01:50:08;;;;;;;;;40.00;37.50;;;;;-147.17;100.00;50473.94;5031988;28;50912;-62
2022/01/27 01:52:34;;;;;;;;;57.50;45.25;;;;;-147.17;100.00;50466.06;5029229;28;51201;-62
2022/01/27 01:55:00;;;;;;;;;57.00;46.00;;;;;-147.17;100.00;50477.88;5021766;28;51174;-61
2022/01/27 01:57:26;;;;;;;;;55.00;42.75;;;;;-147.17;100.00;50477.88;5027352;28;51111;-61
2022/01/27 01:59:51;;;;;;;;;64.25;50.00;;;;;-147.17;100.00;50497.56;5021985;28;51076;-61
2022/01/27 02:02:17;;;;;;;;;97.25;74.50;;;;;-147.17;100.00;50477.88;5016371;28;51284;-62
2022/01/27 02:04:43;;;;;;;;;61.00;49.25;;;;;-147.17;100.00;50471.97;5020363;28;51214;-61
2022/01/27 02:07:57;;;;;;;;;59.25;46.75;;;;;-147.17;100.00;50497.56;5025670;28;50987;-61
2022/01/27 02:18:08;;;;;;;;;59.50;49.25;;;;;-147.17;100.00;50458.19;5022223;28;51125;-60
2022/01/27 02:20:37;;;;;;;;;60.25;47.75;;;;;-147.17;100.00;50477.88;5029167;28;51257;-60
2022/01/27 02:23:05;;;;;;;;;63.25;50.75;;;;;-147.17;100.00;50483.78;5032033;28;51340;-60
2022/01/27 02:25:30;;;;;;;;;62.75;50.00;;;;;-147.17;100.00;50475.91;5028953;28;51253;-61
2022/01/27 02:27:58;;;;;;;;;57.50;49.00;;;;;-147.17;100.00;50452.28;5025318;28;51125;-60
2022/01/27 02:30:25;;;;;;;;;68.25;50.75;;;;;-147.17;100.00;50501.50;5025130;28;51329;-60
2022/01/27 02:32:52;;;;;;;;;60.50;50.75;;;;;-147.17;100.00;50446.38;5017489;28;51163;-60
2022/01/27 02:35:21;;;;;;;;;55.50;44.25;;;;;-147.17;100.00;50483.78;5022621;28;51898;-60
2022/01/27 02:37:46;;;;;;;;;60.75;49.00;;;;;-147.17;100.00;50464.09;5013836;28;51193;-60
2022/01/27 02:40:18;;;;;;;;;60.75;46.50;;;;;-147.17;100.00;50466.06;5032094;28;51297;-60
2022/01/27 02:42:43;;;;;;;;;65.25;50.00;;;;;-147.17;100.00;50454.25;5017916;28;51158;-60
2022/01/27 02:45:13;;;;;;;;;61.50;49.25;;;;;-147.17;100.00;50470.00;5019779;28;51140;-60
2022/01/27 02:47:39;;;;;;;;;62.50;48.25;;;;;-147.17;100.00;50481.81;5018659;28;50881;-60
2022/01/27 02:50:06;;;;;;;;;58.75;48.00;;;;;-147.17;100.00;50466.06;5023030;28;50941;-60
2022/01/27 02:52:31;;;;;;;;;51.75;45.50;;;;;-147.17;100.00;50466.06;5029700;28;51382;-61
2022/01/27 02:54:57;;;;;;;;;60.75;48.50;;;;;-147.17;100.00;50446.38;5029595;28;51899;-60
2022/01/27 02:57:23;;;;;;;;;63.00;47.75;;;;;-147.17;100.00;50477.88;5013587;28;51125;-60
2022/01/27 02:59:49;;;;;;;;;61.00;47.50;;;;;-147.17;100.00;50464.09;5027822;28;51285;-60
2022/01/27 03:02:16;;;;;;;;;57.75;47.50;;;;;-147.17;100.00;50450.31;5025528;28;51285;-60
2022/01/27 03:04:41;;;;;;;;;59.25;49.50;;;;;-147.17;100.00;50460.16;5023155;28;52077;-60
2022/01/27 03:07:07;;;;;;;;;63.25;49.00;;;;;-147.17;100.00;50473.94;5025672;28;51162;-60
2022/01/27 03:09:34;;;;;;;;;58.50;46.50;;;;;-147.17;100.00;50470.00;5024123;28;51440;-60
2022/01/27 03:12:01;;;;;;;;;56.00;45.50;;;;;-147.17;100.00;50477.88;5022163;28;51238;-60
2022/01/27 03:14:29;;;;;;;;;56.75;46.00;;;;;-147.17;100.00;50466.06;5019413;28;51035;-60
2022/01/27 03:16:57;;;;;;;;;54.50;45.00;;;;;-147.17;100.00;50432.59;5011402;28;51294;-60
2022/01/27 03:19:22;;;;;;;;;63.00;49.75;;;;;-147.17;100.00;50454.25;5017249;28;51224;-60
2022/01/27 03:21:49;;;;;;;;;55.00;45.50;;;;;-147.17;100.00;50442.44;5021000;28;51343;-60
2022/01/27 03:24:14;;;;;;;;;58.50;46.00;;;;;-147.17;100.00;50442.44;5027538;28;52082;-60
2022/01/27 03:26:41;;;;;;;;;57.75;46.00;;;;;-147.17;100.00;50448.34;5021457;28;51070;-60
2022/01/27 03:29:07;;;;;;;;;62.00;49.25;;;;;-147.17;100.00;50481.81;5020931;28;50987;-60
2022/01/27 03:31:32;;;;;;;;;58.75;46.00;;;;;-147.17;100.00;50458.19;5021066;28;52015;-60
2022/01/27 03:33:58;;;;;;;;;50.75;41.50;;;;;-147.17;100.00;50452.28;5031554;28;51059;-60
2022/01/27 03:36:25;;;;;;;;;58.25;47.25;;;;;-147.17;100.00;50491.66;5024696;28;51277;-60
2022/01/27 03:38:51;;;;;;;;;66.00;48.50;;;;;-147.17;100.00;50462.13;5025366;28;51214;-60
2022/01/27 03:41:21;;;;;;;;;53.50;44.00;;;;;-147.17;100.00;50446.38;5029032;28;51121;-60
2022/01/27 03:43:48;;;;;;;;;49.25;42.25;;;;;-147.17;100.00;50466.06;5029488;28;51097;-60
2022/01/27 03:46:14;;;;;;;;;61.50;48.75;;;;;-147.17;100.00;50481.81;5026006;28;51319;-59
2022/01/27 03:48:39;;;;;;;;;61.25;45.25;;;;;-147.17;100.00;50454.25;5024085;28;51328;-59
2022/01/27 03:51:05;;;;;;;;;59.00;45.00;;;;;-147.17;100.00;50452.28;5029674;28;51133;-59
2022/01/27 03:53:30;;;;;;;;;55.75;44.00;;;;;-147.17;100.00;50466.06;5027084;28;51756;-59
2022/01/27 03:55:57;;;;;;;;;54.00;44.75;;;;;-147.17;100.00;50448.34;5024128;28;51150;-58
2022/01/27 03:58:22;;;;;;;;;56.50;45.50;;;;;-147.17;100.00;50454.25;5034192;28;51206;-59
2022/01/27 04:00:48;;;;;;;;;57.25;44.00;;;;;-147.17;100.00;50436.53;5019663;28;51285;-60
2022/01/27 04:03:16;;;;;;;;;54.00;44.00;;;;;-147.17;100.00;50454.25;5021917;28;51625;-59
2022/01/27 04:05:51;;;;;;;;;57.00;45.25;;;;;-147.17;100.00;50460.16;5029357;28;51320;-59
2022/01/27 04:08:17;;;;;;;;;49.75;40.75;;;;;-147.17;100.00;50493.63;5030301;28;51117;-59
2022/01/27 04:10:43;;;;;;;;;49.25;43.00;;;;;-147.17;100.00;50450.31;5027004;28;50982;-59
2022/01/27 04:13:09;;;;;;;;;63.50;47.00;;;;;-147.17;100.00;50470.00;5017153;28;52913;-59
2022/01/27 04:15:37;;;;;;;;;59.50;46.25;;;;;-147.17;100.00;50477.88;5025689;28;51185;-59
2022/01/27 04:18:04;;;;;;;;;58.00;44.50;;;;;-147.17;100.00;50438.50;5025950;28;51243;-59
2022/01/27 04:20:29;;;;;;;;;54.00;43.75;;;;;-147.17;100.00;50450.31;5014109;28;51021;-60
2022/01/27 04:22:55;;;;;;;;;50.25;41.00;;;;;-147.17;100.00;50430.63;5016573;28;52079;-60
2022/01/27 04:25:20;;;;;;;;;51.25;42.50;;;;;-147.17;100.00;50440.47;5032531;28;51023;-60
2022/01/27 04:27:50;;;;;;;;;52.25;43.00;;;;;-147.17;100.00;50446.38;5031353;28;50949;-60
2022/01/27 04:30:19;;;;;;;;;55.50;45.50;;;;;-147.17;100.00;50438.50;5022467;28;51419;-61
2022/01/27 04:32:51;;;;;;;;;57.25;44.50;;;;;-147.17;100.00;50481.81;5027133;28;51745;-60
2022/01/27 04:35:20;;;;;;;;;57.25;43.50;;;;;-147.17;100.00;50468.03;5026775;28;51347;-60
2022/01/27 04:41:09;;;;;;;;;50.50;42.75;;;;;-147.17;100.00;50434.56;4970775;28;51410;-60
2022/01/27 04:43:49;;;;;;;;;51.50;43.00;;;;;-147.17;100.00;50466.06;4972172;28;52665;-60
2022/01/27 04:48:51;;;;;;;;;46.25;39.75;;;;;-147.17;100.00;50438.50;5032945;28;51107;-60
2022/01/27 04:51:20;;;;;;;;;48.25;42.00;;;;;-147.17;100.00;50462.13;5031622;28;51197;-60
2022/01/27 04:54:14;;;;;;;;;48.50;38.25;;;;;-147.17;100.00;50458.19;5029855;28;51744;-60
2022/01/27 04:56:33;;;;;;;;;40.50;34.75;;;;;-147.17;100.00;50454.25;5013794;28;50940;-62
2022/01/27 04:59:04;;;;;;;;;55.75;45.25;;;;;-147.17;100.00;50430.63;5015867;28;51134;-61
2022/01/27 05:01:38;;;;;;;;;57.25;45.25;;;;;-147.17;100.00;50426.69;5031741;28;51086;-60
2022/01/27 05:04:09;;;;;;;;;51.50;42.00;;;;;-147.17;100.00;50450.31;5031996;28;51860;-60
2022/01/27 05:06:35;;;;;;;;;45.50;39.75;;;;;-147.17;100.00;50428.66;5027278;28;51243;-60
2022/01/27 05:09:00;;;;;;;;;52.50;42.50;;;;;-147.17;100.00;50438.50;5016611;28;51517;-60
2022/01/27 05:11:36;;;;;;;;;51.75;44.25;;;;;-147.17;100.00;50462.13;5026508;28;51107;-60
2022/01/27 05:14:24;;;;;;;;;35.25;30.25;;;;;-147.17;100.00;50414.88;5018020;28;51259;-60
2022/01/27 05:16:48;;;;;;;;;54.00;43.25;;;;;-147.17;100.00;50442.44;5032304;28;51018;-60
2022/01/27 05:19:14;;;;;;;;;46.50;42.00;;;;;-147.17;100.00;50458.19;5032194;28;52006;-60
2022/01/27 05:21:39;;;;;;;;;50.50;41.50;;;;;-147.17;100.00;50452.28;5017153;28;50917;-59
2022/01/27 05:24:05;;;;;;;;;45.00;40.75;;;;;-147.17;100.00;50440.47;5022611;28;52914;-60
2022/01/27 05:26:32;;;;;;;;;59.00;43.00;;;;;-147.17;100.00;50434.56;5025483;28;54894;-65
2022/01/27 05:28:57;;;;;;;;;45.75;40.50;;;;;-147.17;100.00;50418.81;5023151;28;50930;-60
2022/01/27 05:31:23;;;;;;;;;48.50;40.50;;;;;-147.17;100.00;50452.28;5023614;28;51052;-60
2022/01/27 05:33:48;;;;;;;;;47.25;41.75;;;;;-147.17;100.00;50470.00;5025677;28;52791;-60
2022/01/27 05:36:13;;;;;;;;;51.00;40.25;;;;;-147.17;100.00;50426.69;5020432;28;51046;-60
2022/01/27 05:38:39;;;;;;;;;42.00;38.50;;;;;-147.17;100.00;50470.00;5017452;28;51577;-59
2022/01/27 05:41:05;;;;;;;;;41.25;39.25;;;;;-147.17;100.00;50426.69;5025324;28;51132;-59
2022/01/27 05:43:31;;;;;;;;;49.75;41.50;;;;;-147.17;100.00;50432.59;5026059;28;52288;-59
2022/01/27 05:45:56;;;;;;;;;45.00;40.50;;;;;-147.17;100.00;50446.38;5024822;28;51093;-59
2022/01/27 05:48:22;;;;;;;;;56.50;41.50;;;;;-147.17;100.00;50430.63;5025520;28;51261;-59
2022/01/27 05:50:47;;;;;;;;;49.50;41.25;;;;;-147.17;100.00;50407.00;5016819;28;51134;-59
2022/01/27 05:53:13;;;;;;;;;50.50;41.75;;;;;-147.17;100.00;50444.41;5016840;28;51689;-59
2022/01/27 05:55:39;;;;;;;;;52.75;42.50;;;;;-147.17;100.00;50428.66;5023496;28;51177;-59
2022/01/27 05:58:04;;;;;;;;;49.00;42.50;;;;;-147.17;100.00;50440.47;5015586;28;51164;-60
2022/01/27 06:00:29;;;;;;;;;53.00;41.00;;;;;-147.17;100.00;50424.72;5030443;28;51022;-59
2022/01/27 06:02:55;;;;;;;;;57.50;43.75;;;;;-147.17;100.00;50448.34;5022823;28;52071;-59
2022/01/27 06:05:21;;;;;;;;;45.50;39.50;;;;;-147.17;100.00;50466.06;5030871;28;51025;-61
2022/01/27 06:07:46;;;;;;;;;40.75;37.00;;;;;-147.17;100.00;50446.38;5031687;28;51075;-60
2022/01/27 06:10:12;;;;;;;;;55.00;42.50;;;;;-147.17;100.00;50434.56;5016310;28;51353;-60
2022/01/27 06:12:56;;;;;;;;;44.00;39.25;;;;;-147.17;100.00;50450.31;5028526;28;51198;-59
2022/01/27 06:15:21;;;;;;;;;43.50;39.25;;;;;-147.17;100.00;50460.16;5020542;28;50929;-60
2022/01/27 06:17:47;;;;;;;;;49.75;42.50;;;;;-147.17;100.00;50442.44;5024632;28;51281;-59
2022/01/27 06:20:14;;;;;;;;;49.25;42.50;;;;;-147.17;100.00;50430.63;5019331;28;51125;-59
2022/01/27 06:22:40;;;;;;;;;47.75;39.00;;;;;-147.17;100.00;50448.34;5022558;28;51735;-59
2022/01/27 06:25:07;;;;;;;;;49.75;41.50;;;;;-147.17;100.00;50438.50;5027385;28;51227;-60
2022/01/27 06:27:32;;;;;;;;;48.25;38.75;;;;;-147.17;100.00;50442.44;5026442;28;51841;-59
2022/01/27 06:29:58;;;;;;;;;44.00;38.50;;;;;-147.17;100.00;50434.56;5024541;28;51159;-60
2022/01/27 06:32:23;;;;;;;;;46.00;37.25;;;;;-147.17;100.00;50436.53;5023237;28;51893;-60
2022/01/27 06:34:49;;;;;;;;;37.50;33.50;;;;;-147.17;100.00;50424.72;5026969;28;51105;-60
2022/01/27 06:37:14;;;;;;;;;50.00;41.25;;;;;-147.17;100.00;50468.03;5030859;28;51119;-60
2022/01/27 06:39:39;;;;;;;;;52.50;42.00;;;;;-147.17;100.00;50430.63;5021283;28;51060;-60
2022/01/27 06:42:07;;;;;;;;;52.00;42.75;;;;;-147.17;100.00;50446.38;5023926;28;52112;-60
2022/01/27 06:44:33;;;;;;;;;47.50;40.75;;;;;-147.17;100.00;50446.38;5030456;28;51054;-60
2022/01/27 06:46:59;;;;;;;;;52.75;41.50;;;;;-147.17;100.00;50442.44;5024610;28;51256;-60
2022/01/27 06:49:24;;;;;;;;;48.00;40.00;;;;;-147.17;100.00;50460.16;5017765;28;51082;-60
2022/01/27 06:51:49;;;;;;;;;43.50;37.75;;;;;-147.17;100.00;50407.00;5012964;28;51271;-60
2022/01/27 06:54:16;;;;;;;;;40.75;37.75;;;;;-147.17;100.00;50446.38;5029138;28;51236;-60
2022/01/27 06:56:43;;;;;;;;;41.50;35.50;;;;;-147.17;100.00;50428.66;5019386;28;51194;-61
2022/01/27 06:59:08;;;;;;;;;41.00;37.25;;;;;-147.17;100.00;50458.19;5014804;28;51162;-61
2022/01/27 07:01:33;;;;;;;;;49.25;41.50;;;;;-147.17;100.00;50438.50;5013391;28;51735;-59
2022/01/27 07:03:59;;;;;;;;;48.50;41.50;;;;;-147.17;100.00;50434.56;5016298;28;51212;-61
2022/01/27 07:06:24;;;;;;;;;54.25;42.00;;;;;-147.17;100.00;50434.56;5026570;28;50838;-60
2022/01/27 07:08:50;;;;;;;;;46.25;40.25;;;;;-147.17;100.00;50440.47;5014987;28;51091;-60
2022/01/27 07:11:15;;;;;;;;;37.75;35.25;;;;;-147.17;100.00;50440.47;5027712;28;51891;-60
2022/01/27 07:13:41;;;;;;;;;49.00;42.00;;;;;-147.17;100.00;50438.50;5027400;28;52542;-59
2022/01/27 07:16:09;;;;;;;;;52.25;41.50;;;;;-147.17;100.00;50432.59;5034710;28;50857;-60
2022/01/27 07:18:36;;;;;;;;;27.00;24.00;;;;;-147.17;100.00;50468.03;5033502;28;51252;-60
2022/01/27 07:21:02;;;;;;;;;40.50;38.00;;;;;-147.17;100.00;50460.16;5032218;28;51728;-59
2022/01/27 07:23:27;;;;;;;;;45.50;38.25;;;;;-147.17;100.00;50436.53;5018405;28;51096;-59
2022/01/27 07:25:53;;;;;;;;;40.50;36.75;;;;;-147.17;100.00;50470.00;5034538;28;51113;-60
2022/01/27 07:28:18;;;;;;;;;42.25;36.25;;;;;-147.17;100.00;50442.44;5032648;28;51110;-59
2022/01/27 07:30:43;;;;;;;;;49.00;40.25;;;;;-147.17;100.00;50434.56;5017752;28;51701;-60
2022/01/27 07:33:09;;;;;;;;;44.25;36.50;;;;;-147.17;100.00;50460.16;5023395;28;51125;-60
2022/01/27 07:35:34;;;;;;;;;46.50;40.75;;;;;-147.17;100.00;50450.31;5026950;28;51223;-60
2022/01/27 07:38:00;;;;;;;;;45.25;39.25;;;;;-147.17;100.00;50466.06;5015137;28;51420;-61
2022/01/27 07:40:25;;;;;;;;;52.00;41.50;;;;;-147.17;100.00;50446.38;5022227;28;51789;-61
2022/01/27 07:42:50;;;;;;;;;43.50;38.00;;;;;-147.17;100.00;50448.34;5020515;28;51296;-61
2022/01/27 07:45:16;;;;;;;;;44.75;40.50;;;;;-147.17;100.00;50481.81;5033933;28;50948;-60
2022/01/27 07:47:41;;;;;;;;;49.50;40.75;;;;;-147.17;100.00;50460.16;5020499;28;50947;-61
2022/01/27 07:50:07;;;;;;;;;47.75;41.50;;;;;-147.17;100.00;50454.25;5030383;28;53634;-60
2022/01/27 07:52:33;;;;;;;;;63.75;51.25;;;;;-147.17;100.00;50464.09;5021433;28;50856;-59
2022/01/27 07:54:58;;;;;;;;;45.50;41.00;;;;;-147.17;100.00;50470.00;5028639;28;51196;-59
2022/01/27 07:57:24;;;;;;;;;55.75;42.25;;;;;-147.17;100.00;50481.81;5015953;28;51027;-63
2022/01/27 07:59:49;;;;;;;;;45.75;40.00;;;;;-147.17;100.00;50428.66;5019851;28;51087;-59
2022/01/27 08:02:15;;;;;;;;;41.50;37.75;;;;;-147.17;100.00;50466.06;5023451;28;51119;-59
2022/01/27 08:04:40;;;;;;;;;45.00;39.50;;;;;-147.17;100.00;50473.94;5010717;28;51241;-60
2022/01/27 08:07:08;;;;;;;;;40.75;38.25;;;;;-147.17;100.00;50460.16;5024144;28;51118;-60
2022/01/27 08:09:34;;;;;;;;;53.75;41.75;;;;;-147.17;100.00;50470.00;5018920;28;52135;-60
2022/01/27 08:11:59;;;;;;;;;44.75;35.75;;;;;-147.17;100.00;50442.44;5014092;28;51217;-60
2022/01/27 08:14:24;;;;;;;;;40.75;38.00;;;;;-147.17;100.00;50466.06;5025893;28;51605;-60
2022/01/27 08:16:50;;;;;;;;;48.00;40.25;;;;;-147.17;100.00;50442.44;5015272;28;51154;-62
2022/01/27 08:19:15;;;;;;;;;47.75;40.25;;;;;-147.17;100.00;50477.88;5028284;28;51819;-61
2022/01/27 08:21:41;;;;;;;;;44.75;38.00;;;;;-147.17;100.00;50458.19;5018068;28;51079;-61
2022/01/27 08:24:06;;;;;;;;;52.75;40.50;;;;;-147.17;100.00;50450.31;5023981;28;51349;-62
2022/01/27 08:26:38;;;;;;;;;47.75;37.25;;;;;-147.17;100.00;50438.50;5031515;28;50973;-63
2022/01/27 08:32:02;;;;;;;;;44.25;38.25;;;;;-147.17;100.00;50464.09;4997658;28;51181;-61
2022/01/27 08:34:33;;;;;;;;;39.75;38.00;;;;;-147.17;100.00;50481.81;5019559;28;51152;-62
2022/01/27 08:37:00;;;;;;;;;57.25;43.25;;;;;-147.17;100.00;50481.81;5025677;28;51842;-61
2022/01/27 08:39:26;;;;;;;;;45.50;39.75;;;;;-147.17;100.00;50475.91;5021541;28;51096;-62
2022/01/27 08:41:52;;;;;;;;;47.00;37.75;;;;;-147.17;100.00;50501.50;5014053;28;50950;-60
2022/01/27 08:44:17;;;;;;;;;50.75;44.00;;;;;-147.17;100.00;50462.13;5024781;28;51039;-60
2022/01/27 08:46:43;;;;;;;;;45.75;37.75;;;;;-147.17;100.00;50458.19;5024364;28;51278;-60
2022/01/27 08:49:09;;;;;;;;;53.00;39.50;;;;;-147.17;100.00;50485.75;5015101;28;51756;-60
2022/01/27 08:51:34;;;;;;;;;46.75;38.00;;;;;-147.17;100.00;50456.22;5006851;28;51061;-62
2022/01/27 08:53:59;;;;;;;;;49.75;41.00;;;;;-147.17;100.00;50471.97;5019065;28;51349;-63
2022/01/27 08:56:25;;;;;;;;;53.00;42.00;;;;;-147.17;100.00;50493.63;5031708;28;51008;-60
2022/01/27 08:58:51;;;;;;;;;40.50;35.25;;;;;-147.17;100.00;50475.91;5032909;28;51280;-61
2022/01/27 09:01:16;;;;;;;;;42.50;37.50;;;;;-147.17;100.00;50501.50;5033199;28;51189;-61
2022/01/27 09:03:42;;;;;;;;;52.75;40.75;;;;;-147.17;100.00;50462.13;5031164;28;51106;-60
2022/01/27 09:06:08;;;;;;;;;48.75;42.50;;;;;-147.17;100.00;50466.06;5032175;28;51040;-60
2022/01/27 09:08:33;;;;;;;;;47.00;40.50;;;;;-147.17;100.00;50468.03;5019860;28;51155;-60
2022/01/27 09:10:59;;;;;;;;;41.50;36.25;;;;;-147.17;100.00;50485.75;5020446;28;50949;-61
2022/01/27 09:13:24;;;;;;;;;53.25;43.50;;;;;-147.17;100.00;50485.75;5030707;28;50946;-60
2022/01/27 09:15:50;;;;;;;;;45.50;39.25;;;;;-147.17;100.00;50458.19;5030722;28;51387;-62
2022/01/27 09:18:16;;;;;;;;;45.00;38.00;;;;;-147.17;100.00;50442.44;5028629;28;51928;-62
2022/01/27 09:20:43;;;;;;;;;46.00;40.25;;;;;-147.17;100.00;50487.72;5030601;28;51008;-60
2022/01/27 09:23:13;;;;;;;;;47.50;40.25;;;;;-147.17;100.00;50477.88;5024255;28;51113;-60
2022/01/27 09:25:45;;;;;;;;;49.75;43.75;;;;;-147.17;100.00;50454.25;5018982;28;51290;-61
2022/01/27 09:28:12;;;;;;;;;42.25;38.50;;;;;-147.17;100.00;50462.13;5030528;28;51264;-61
2022/01/27 09:30:39;;;;;;;;;46.50;38.50;;;;;-147.17;100.00;50475.91;5032770;28;51021;-61
2022/01/27 09:33:04;;;;;;;;;51.50;41.00;;;;;-147.17;100.00;50483.78;5031320;28;51108;-61
2022/01/27 09:35:31;;;;;;;;;43.75;38.00;;;;;-147.17;100.00;50493.63;5026796;28;51059;-61
2022/01/27 09:37:57;;;;;;;;;53.50;41.50;;;;;-147.17;100.00;50493.63;5016927;28;51111;-61
2022/01/27 09:40:23;;;;;;;;;42.25;37.50;;;;;-147.17;100.00;50440.47;5022649;28;50939;-62
2022/01/27 09:42:53;;;;;;;;;43.00;38.75;;;;;-147.17;100.00;50477.88;5013194;28;51023;-62
2022/01/27 09:45:20;;;;;;;;;51.75;41.25;;;;;-147.17;100.00;50477.88;5014609;28;51585;-60
2022/01/27 09:47:54;;;;;;;;;37.25;30.25;;;;;-147.17;100.00;50501.50;5027967;28;51130;-61
2022/01/27 09:53:11;;;;;;;;;20.25;19.00;;;;;-147.17;100.00;50470.00;5023009;28;51273;-62
2022/01/27 09:55:36;;;;;;;;;48.00;40.75;;;;;-147.17;100.00;50497.56;5032327;28;50916;-60
2022/01/27 09:58:03;;;;;;;;;45.75;36.25;;;;;-147.17;100.00;50505.44;5030455;28;51973;-61
2022/01/27 10:00:30;;;;;;;;;46.50;40.00;;;;;-147.17;100.00;50483.78;5031015;28;51040;-62
2022/01/27 10:03:13;;;;;;;;;52.25;42.25;;;;;-147.17;100.00;50497.56;5030706;28;51051;-60
2022/01/27 10:05:40;;;;;;;;;51.25;41.75;;;;;-147.17;100.00;50483.78;5030535;28;50903;-62
2022/01/27 10:08:10;;;;;;;;;46.25;40.00;;;;;-147.17;100.00;50507.41;5031915;28;51079;-60
2022/01/27 10:10:42;;;;;;;;;47.50;39.75;;;;;-147.17;100.00;50525.13;5014130;28;51127;-61
2022/01/27 10:13:10;;;;;;;;;51.75;41.00;;;;;-147.17;100.00;50511.34;5018685;28;51160;-60
2022/01/27 10:15:38;;;;;;;;;45.75;38.50;;;;;-147.17;100.00;50517.25;5027969;28;51255;-62
2022/01/27 10:18:11;;;;;;;;;47.00;39.25;;;;;-147.17;100.00;50513.31;5031395;28;50983;-60
2022/01/27 10:21:04;;;;;;;;;47.00;40.25;;;;;-147.17;100.00;50503.47;5018629;28;50878;-60
2022/01/27 10:23:33;;;;;;;;;44.50;37.25;;;;;-147.17;100.00;50497.56;5022557;28;50995;-62
2022/01/27 10:26:13;;;;;;;;;56.25;43.75;;;;;-147.17;100.00;50495.59;5030839;28;50948;-62
2022/01/27 10:28:50;;;;;;;;;47.50;40.75;;;;;-147.17;100.00;50509.38;5029903;28;51838;-62
2022/01/27 10:31:19;;;;;;;;;44.75;39.25;;;;;-147.17;100.00;50534.97;5030025;28;51018;-62
2022/01/27 10:33:47;;;;;;;;;54.75;42.50;;;;;-147.17;100.00;50517.25;5030718;28;51133;-62
2022/01/27 10:36:23;;;;;;;;;49.50;40.50;;;;;-147.17;100.00;50517.25;5020106;28;51182;-62
2022/01/27 10:38:56;;;;;;;;;45.75;39.75;;;;;-147.17;100.00;50538.91;5009886;28;52350;-61
2022/01/27 10:41:23;;;;;;;;;36.50;35.25;;;;;-147.17;100.00;50546.78;5021986;28;50961;-61
2022/01/27 10:43:49;;;;;;;;;49.50;40.75;;;;;-147.17;100.00;50517.25;5015955;28;51103;-61
2022/01/27 10:46:23;;;;;;;;;47.25;40.00;;;;;-147.17;100.00;50544.81;5011581;28;50993;-61
2022/01/27 10:49:09;;;;;;;;;50.25;39.75;;;;;-147.17;100.00;50564.50;5010067;28;52704;-62
2022/01/27 10:51:49;;;;;;;;;44.00;37.00;;;;;-147.17;100.00;50517.25;5021846;28;51266;-63
2022/01/27 10:54:24;;;;;;;;;49.25;40.25;;;;;-147.17;100.00;50529.06;5026364;28;52781;-61
2022/01/27 10:56:50;;;;;;;;;50.25;39.00;;;;;-147.17;100.00;50529.06;5011776;28;50894;-62
2022/01/27 10:59:18;;;;;;;;;46.50;40.75;;;;;-147.17;100.00;50533.00;5009743;28;53629;-62
2022/01/27 11:01:46;;;;;;;;;44.50;39.25;;;;;-147.17;100.00;50521.19;5011559;28;50944;-60
2022/01/27 11:04:13;;;;;;;;;42.25;38.50;;;;;-147.17;100.00;50527.09;5024740;28;51154;-61
2022/01/27 11:07:12;;;;;;;;;67.75;54.50;;;;;-147.17;100.00;50556.63;5011640;28;51234;-63
2022/01/27 11:09:44;;;;;;;;;47.25;39.00;;;;;-147.17;100.00;50525.13;4978058;28;51793;-61
2022/01/27 11:12:15;;;;;;;;;46.25;41.25;;;;;-147.17;100.00;50548.75;5019613;28;51034;-61
2022/01/27 11:14:41;;;;;;;;;50.00;39.75;;;;;-147.17;100.00;50538.91;5030034;28;51207;-62
2022/01/27 11:17:10;;;;;;;;;42.50;37.25;;;;;-147.17;100.00;50538.91;5029675;28;51151;-61
2022/01/27 11:19:58;;;;;;;;;46.25;39.75;;;;;-147.17;100.00;50564.50;5023440;28;51243;-62
2022/01/27 11:22:41;;;;;;;;;45.00;37.00;;;;;-147.17;100.00;50552.69;5024750;28;51183;-62
2022/01/27 11:25:49;;;;;;;;;55.75;44.00;;;;;-147.17;100.00;50560.56;5010721;28;50949;-61
2022/01/27 11:27:59;;;;;;;;;43.50;36.00;;;;;-147.17;100.00;50493.63;5014260;28;51070;-61
2022/01/27 11:30:35;;;;;;;;;45.50;38.25;;;;;-147.17;100.00;50527.09;5010994;28;50896;-61
2022/01/27 11:33:16;;;;;;;;;48.00;39.50;;;;;-147.17;100.00;50536.94;5026996;28;51111;-62
2022/01/27 11:35:43;;;;;;;;;44.25;39.25;;;;;-147.17;100.00;50533.00;5029615;28;51238;-62
2022/01/27 11:38:09;;;;;;;;;51.00;39.25;;;;;-147.17;100.00;50529.06;5029797;28;51316;-62